Time;durP1;ratioP1;P1;durP2;ratioP2;P2;SDS_P1;SDS_P2;PMS_P1;PMS_P2;Temp;Humidity;BMP_temperature;BMP_pressure;BME280_temperature;BME280_humidity;BME280_pressure;Samples;Min_cycle;Max_cycle;Signal;HPM_P1;HPM_P2
2023/01/20 00:03:16;;;;;;;38.92;17.95;;;;;;;1.28;100.00;101718.28;10371575;28;20132;-78
2023/01/20 00:08:16;;;;;;;40.47;17.17;;;;;;;0.73;100.00;101629.38;10371414;28;20050;-78
2023/01/20 00:13:17;;;;;;;45.90;18.60;;;;;;;0.61;100.00;101607.25;10371184;28;20120;-78
2023/01/20 00:18:18;;;;;;;46.53;17.25;;;;;;;1.12;100.00;101695.47;10370931;28;20058;-78
2023/01/20 00:23:18;;;;;;;40.22;17.35;;;;;;;1.15;100.00;101699.72;10371489;28;20133;-78
2023/01/20 00:28:19;;;;;;;44.83;18.95;;;;;;;0.79;100.00;101645.59;10370666;28;20096;-78
2023/01/20 00:33:20;;;;;;;37.88;17.50;;;;;;;1.37;100.00;101716.06;10370192;28;20080;-79
2023/01/20 00:38:21;;;;;;;39.63;17.75;;;;;;;1.14;100.00;101684.94;10370921;28;20054;-78
2023/01/20 00:43:21;;;;;;;35.95;16.80;;;;;;;1.14;100.00;101677.94;10376181;28;20061;-78
2023/01/20 00:48:22;;;;;;;47.13;17.23;;;;;;;1.21;100.00;101675.00;10377944;28;20387;-78
2023/01/20 00:53:23;;;;;;;38.83;17.45;;;;;;;1.33;100.00;101688.34;10378069;28;20124;-78
2023/01/20 00:58:24;;;;;;;32.78;16.20;;;;;;;1.22;100.00;101669.69;10377983;28;20065;-78
2023/01/20 01:03:26;;;;;;;33.38;16.50;;;;;;;1.01;100.00;101627.09;10377427;28;20053;-78
2023/01/20 01:08:27;;;;;;;39.40;17.33;;;;;;;0.78;100.00;101609.91;10376650;28;20421;-78
2023/01/20 01:13:28;;;;;;;33.35;16.17;;;;;;;1.14;100.00;101656.16;10376415;28;20052;-78
2023/01/20 01:18:29;;;;;;;34.88;17.38;;;;;;;1.24;100.00;101669.63;10377176;28;20428;-78
2023/01/20 01:23:29;;;;;;;40.50;18.35;;;;;;;1.35;100.00;101704.84;10377253;28;20054;-78
2023/01/20 01:28:30;;;;;;;36.95;18.60;;;;;;;0.97;100.00;101637.81;10376213;28;20152;-78
2023/01/20 01:33:32;;;;;;;38.15;18.17;;;;;;;1.30;100.00;101698.97;10376441;28;20073;-78
2023/01/20 01:38:33;;;;;;;38.45;17.88;;;;;;;0.55;100.00;101560.50;10375861;28;20034;-78
2023/01/20 01:43:36;;;;;;;40.47;17.20;;;;;;;1.25;100.00;101671.31;10376510;28;20042;-78
2023/01/20 01:48:41;;;;;;;44.28;18.83;;;;;;;0.64;100.00;101573.13;10375844;28;20049;-78
2023/01/20 01:53:52;;;;;;;37.60;17.38;;;;;;;1.03;100.00;101647.97;10375513;28;20540;-78
2023/01/20 01:58:57;;;;;;;38.35;17.73;;;;;;;0.99;100.00;101634.19;10374255;28;20042;-78
2023/01/20 02:04:09;;;;;;;38.60;17.83;;;;;;;1.09;100.00;101643.28;10374870;28;20064;-78
2023/01/20 02:09:11;;;;;;;39.53;17.35;;;;;;;0.29;100.00;101502.44;10370804;28;20046;-77
2023/01/20 02:14:12;;;;;;;33.63;17.80;;;;;;;1.25;100.00;101679.16;10361857;28;20049;-78
2023/01/20 02:19:42;;;;;;;45.63;19.02;;;;;;;0.36;100.00;101519.53;10373222;28;20057;-78
2023/01/20 02:25:16;;;;;;;40.70;17.88;;;;;;;0.63;100.00;101569.66;10373072;28;20046;-78
2023/01/20 02:30:33;;;;;;;;;;;;;;;1.30;100.00;101675.41;10372619;28;20050;-78
2023/01/20 02:35:55;;;;;;;43.30;19.10;;;;;;;1.23;100.00;101681.03;10373599;28;20282;-78
2023/01/20 02:41:12;;;;;;;40.33;18.40;;;;;;;0.67;100.00;101584.28;10372339;28;20125;-77
2023/01/20 02:46:27;;;;;;;46.13;18.25;;;;;;;1.22;100.00;101674.91;10373522;28;20061;-75
2023/01/20 02:51:33;;;;;;;36.85;18.52;;;;;;;1.01;100.00;101634.09;10374057;28;20034;-76
2023/01/20 02:56:36;;;;;;;39.47;18.55;;;;;;;1.28;100.00;101679.00;10367736;28;20057;-79
2023/01/20 03:01:42;;;;;;;39.00;18.70;;;;;;;0.35;100.00;101517.84;10368123;28;20038;-77
2023/01/20 03:06:48;;;;;;;39.45;18.35;;;;;;;0.55;100.00;101550.03;10371863;28;20048;-77
2023/01/20 03:12:25;;;;;;;37.90;18.73;;;;;;;1.23;100.00;101650.47;10372934;28;20049;-76
2023/01/20 03:17:26;;;;;;;42.63;19.67;;;;;;;1.35;100.00;101696.97;10371916;28;20112;-77
2023/01/20 03:22:29;;;;;;;39.92;19.08;;;;;;;1.08;100.00;101657.28;10372453;28;20205;-77
2023/01/20 03:27:30;;;;;;;36.45;17.65;;;;;;;1.01;100.00;101655.03;10372460;28;20068;-77
2023/01/20 03:32:31;;;;;;;34.85;16.25;;;;;;;0.50;100.00;101592.06;10372372;28;20038;-77
2023/01/20 03:37:33;;;;;;;31.85;15.45;;;;;;;1.12;100.00;101720.81;10373063;28;20044;-77
2023/01/20 03:42:43;;;;;;;31.35;15.52;;;;;;;1.01;100.00;101692.50;10374048;28;20468;-77
2023/01/20 03:47:57;;;;;;;38.58;14.75;;;;;;;0.73;100.00;101651.13;10371311;28;20418;-77
2023/01/20 03:53:36;;;;;;;32.10;15.57;;;;;;;1.18;100.00;101730.97;10370224;28;20065;-77
2023/01/20 03:58:42;;;;;;;34.28;15.88;;;;;;;1.12;100.00;101731.28;10371510;28;20045;-77
2023/01/20 04:03:46;;;;;;;40.35;15.48;;;;;;;0.54;100.00;101638.09;10372221;28;20038;-77
2023/01/20 04:09:01;;;;;;;34.83;14.43;;;;;;;1.02;100.00;101740.50;10371037;28;20636;-77
2023/01/20 04:14:02;;;;;;;29.38;14.75;;;;;;;1.12;100.00;101747.81;10371018;28;20046;-77
2023/01/20 04:19:03;;;;;;;33.78;15.95;;;;;;;1.06;100.00;101732.41;10377442;28;20066;-76
2023/01/20 04:24:19;;;;;;;31.17;15.75;;;;;;;1.08;100.00;101748.03;10379110;28;20450;-76
2023/01/20 04:29:19;;;;;;;37.97;14.75;;;;;;;0.67;100.00;101693.28;10378165;28;20132;-78
2023/01/20 04:34:21;;;;;;;37.35;14.40;;;;;;;0.85;100.00;101739.50;10366774;28;20141;-78
2023/01/20 04:39:21;;;;;;;36.92;14.18;;;;;;;0.80;100.00;101746.69;10338555;28;20046;-77
2023/01/20 04:44:22;;;;;;;37.50;13.85;;;;;;;0.38;100.00;101686.75;10364860;28;20042;-76
2023/01/20 04:49:23;;;;;;;36.03;13.57;;;;;;;0.68;100.00;101726.34;10356090;28;20531;-77
2023/01/20 04:54:24;;;;;;;35.17;13.40;;;;;;;0.76;100.00;101732.06;10368554;28;20092;-77
2023/01/20 04:59:24;;;;;;;35.88;13.50;;;;;;;0.87;100.00;101747.28;10342396;28;20128;-76
2023/01/20 05:04:25;;;;;;;35.58;13.18;;;;;;;0.85;100.00;101762.19;10332450;28;20049;-76
2023/01/20 05:09:26;;;;;;;36.10;12.88;;;;;;;0.67;100.00;101728.09;10332132;28;20520;-77
2023/01/20 05:14:26;;;;;;;34.92;14.13;;;;;;;0.29;100.00;101671.50;10335095;28;20097;-76
2023/01/20 05:19:27;;;;;;;35.17;14.70;;;;;;;0.89;100.00;101756.72;10337308;28;20145;-76
2023/01/20 05:24:29;;;;;;;31.25;13.90;;;;;;;0.84;100.00;101760.50;10336075;28;20494;-76
2023/01/20 05:29:30;;;;;;;39.90;15.18;;;;;;;0.73;100.00;101747.06;10335530;28;20042;-76
2023/01/20 05:34:31;;;;;;;35.47;15.00;;;;;;;0.39;100.00;101693.66;10335976;28;20478;-77
2023/01/20 05:39:31;;;;;;;36.30;13.55;;;;;;;0.02;100.00;101643.06;10335526;28;20054;-76
2023/01/20 05:44:32;;;;;;;30.30;14.18;;;;;;;0.82;100.00;101755.34;10334896;28;20046;-76
2023/01/20 05:49:33;;;;;;;36.53;14.25;;;;;;;0.55;100.00;101704.28;10334557;28;20525;-76
2023/01/20 05:54:33;;;;;;;36.25;14.90;;;;;;;0.93;100.00;101751.34;10334559;28;20049;-76
2023/01/20 05:59:34;;;;;;;37.45;13.25;;;;;;;0.82;100.00;101726.56;10334385;28;20039;-76
2023/01/20 06:04:35;;;;;;;36.72;13.88;;;;;;;1.01;100.00;101744.00;10334675;28;20092;-76
2023/01/20 06:09:36;;;;;;;35.70;14.02;;;;;;;1.08;100.00;101742.81;10334322;28;20046;-76
2023/01/20 06:14:36;;;;;;;35.67;13.95;;;;;;;0.56;100.00;101661.53;10333612;28;20046;-77
2023/01/20 06:19:37;;;;;;;28.35;13.38;;;;;;;1.07;100.00;101744.56;10334487;28;20091;-77
2023/01/20 06:24:38;;;;;;;33.40;13.63;;;;;;;1.21;100.00;101754.38;10333551;28;20406;-77
2023/01/20 06:29:39;;;;;;;31.92;13.13;;;;;;;1.02;100.00;101712.53;10332992;28;20488;-76
2023/01/20 06:34:39;;;;;;;40.00;13.65;;;;;;;1.32;100.00;101765.19;10332796;28;20505;-76
2023/01/20 06:39:40;;;;;;;37.15;13.18;;;;;;;0.20;100.00;101599.56;10331972;28;20046;-77
2023/01/20 06:44:41;;;;;;;31.00;12.82;;;;;;;1.08;100.00;101727.97;10333373;28;20043;-77
2023/01/20 06:49:41;;;;;;;39.72;12.80;;;;;;;0.82;100.00;101689.94;10332743;28;20050;-77
2023/01/20 06:54:42;;;;;;;35.60;13.57;;;;;;;1.24;100.00;101751.63;10332270;28;20407;-78
2023/01/20 06:59:43;;;;;;;30.20;12.25;;;;;;;1.14;100.00;101711.97;10332770;28;20128;-78
2023/01/20 07:04:44;;;;;;;41.55;12.20;;;;;;;1.23;100.00;101696.75;10332258;28;20124;-77
2023/01/20 07:09:44;;;;;;;31.10;13.27;;;;;;;0.95;100.00;101647.50;10332256;28;20100;-77
2023/01/20 07:14:45;;;;;;;33.25;13.15;;;;;;;1.62;100.00;101750.69;10332158;28;20584;-77
2023/01/20 07:19:46;;;;;;;32.67;12.65;;;;;;;1.59;100.00;101747.28;10332430;28;20490;-78
2023/01/20 07:24:46;;;;;;;34.80;13.02;;;;;;;1.49;100.00;101705.91;10331445;28;20472;-77
2023/01/20 07:29:47;;;;;;;34.30;12.90;;;;;;;1.90;100.00;101744.91;10331841;28;20064;-76
2023/01/20 07:34:48;;;;;;;40.28;13.25;;;;;;;1.90;100.00;101742.28;10331564;28;20406;-76
2023/01/20 07:39:49;;;;;;;32.13;13.77;;;;;;;1.37;100.00;101627.03;10331779;28;20030;-77
2023/01/20 07:44:49;;;;;;;42.92;13.93;;;;;;;1.96;100.00;101721.84;10331293;28;20046;-76
2023/01/20 07:49:50;;;;;;;38.78;14.25;;;;;;;2.04;100.00;101726.72;10332330;28;20069;-76
2023/01/20 07:54:51;;;;;;;40.75;14.48;;;;;;;1.68;100.00;101661.31;10339078;28;20068;-76
2023/01/20 07:59:51;;;;;;;33.47;15.05;;;;;;;1.67;100.00;101615.06;10338818;28;20066;-75
2023/01/20 08:04:52;;;;;;;39.85;16.35;;;;;;;2.40;100.00;101712.59;10339485;28;20103;-75
2023/01/20 08:09:53;;;;;;;42.75;16.13;;;;;;;2.46;100.00;101705.25;10339206;28;20054;-76
2023/01/20 08:14:54;;;;;;;43.78;16.67;;;;;;;2.60;100.00;101698.41;10338880;28;20041;-76
2023/01/20 08:19:54;;;;;;;43.53;15.95;;;;;;;2.27;100.00;101626.72;10338934;28;20109;-75
2023/01/20 08:24:55;;;;;;;49.38;17.75;;;;;;;2.58;100.00;101681.91;10338633;28;20034;-77
2023/01/20 08:29:56;;;;;;;43.33;16.88;;;;;;;2.75;100.00;101671.31;10338045;28;20046;-76
2023/01/20 08:34:56;;;;;;;44.85;17.65;;;;;;;2.60;100.00;101631.03;10338162;28;20129;-76
2023/01/20 08:39:57;;;;;;;34.90;15.60;;;;;;;2.87;100.00;101648.78;10338056;28;20483;-76
2023/01/20 08:44:58;;;;;;;44.25;17.27;;;;;;;2.54;99.76;101599.06;10337110;28;20038;-76
2023/01/20 08:49:58;;;;;;;41.20;16.38;;;;;;;2.45;99.18;101558.44;10336484;28;20042;-77
2023/01/20 08:54:59;;;;;;;38.88;18.15;;;;;;;2.82;98.96;101614.94;10336824;28;20100;-77
2023/01/20 09:00:00;;;;;;;44.30;18.02;;;;;;;3.03;99.30;101640.91;10336599;28;20045;-77
2023/01/20 09:05:03;;;;;;;39.40;19.02;;;;;;;2.32;98.76;101497.13;10336282;28;20046;-78
2023/01/20 09:10:04;;;;;;;39.08;18.08;;;;;;;2.91;98.29;101561.09;10336554;28;20479;-77
2023/01/20 09:15:06;;;;;;;44.10;16.58;;;;;;;3.47;97.76;101625.22;10336589;28;20045;-76
2023/01/20 09:20:07;;;;;;;52.92;21.02;;;;;;;3.01;97.39;101528.09;10336821;28;20461;-77
2023/01/20 09:25:09;;;;;;;39.17;17.90;;;;;;;2.72;97.43;101461.56;10336227;28;20102;-77
2023/01/20 09:30:10;;;;;;;44.03;19.98;;;;;;;3.78;97.04;101603.19;10336201;28;20510;-77
2023/01/20 09:35:11;;;;;;;45.95;19.73;;;;;;;3.78;96.90;101581.31;10336151;28;20066;-76
2023/01/20 09:45:58;;;;;;;48.30;19.65;;;;;;;4.02;95.54;101579.78;10335351;28;20038;-76
2023/01/20 09:56:29;;;;;;;33.33;19.50;;;;;;;4.05;95.45;101569.09;10335168;28;20042;-77
2023/01/20 10:01:30;;;;;;;44.10;20.75;;;;;;;3.78;95.30;101520.88;10335642;28;20570;-77
2023/01/20 10:06:38;;;;;;;42.47;20.42;;;;;;;4.08;95.30;101575.94;10334153;28;20134;-77
2023/01/20 10:11:42;;;;;;;41.45;19.70;;;;;;;4.06;95.90;101572.56;10334515;28;20046;-76
2023/01/20 10:17:11;;;;;;;39.47;20.13;;;;;;;3.66;94.94;101502.28;10333487;28;20062;-77
2023/01/20 10:22:26;;;;;;;46.72;20.25;;;;;;;4.02;94.44;101577.16;10333911;28;20422;-77
2023/01/20 10:27:30;;;;;;;42.45;20.88;;;;;;;3.36;94.25;101452.47;10333843;28;20046;-77
2023/01/20 10:32:35;;;;;;;37.95;19.38;;;;;;;3.59;94.19;101485.22;10333264;28;20038;-77
2023/01/20 10:37:36;;;;;;;35.05;19.13;;;;;;;4.03;93.87;101549.91;10333069;28;20042;-77
2023/01/20 10:42:36;;;;;;;35.90;18.15;;;;;;;4.20;93.78;101579.59;10333756;28;20046;-77
2023/01/20 10:47:45;;;;;;;32.85;17.27;;;;;;;3.78;93.18;101478.81;10332375;28;20053;-76
2023/01/20 10:52:49;;;;;;;33.67;17.33;;;;;;;3.54;92.32;101424.22;10332383;28;20121;-77
2023/01/20 10:57:55;;;;;;;31.20;16.85;;;;;;;4.48;92.20;101544.47;10332266;28;20112;-77
2023/01/20 11:02:59;;;;;;;28.63;16.63;;;;;;;4.66;90.79;101553.78;10332113;28;20122;-76
2023/01/20 11:08:02;;;;;;;28.10;16.23;;;;;;;4.16;89.33;101449.22;10332001;28;20042;-76
2023/01/20 11:13:02;;;;;;;33.05;17.50;;;;;;;4.85;89.33;101553.44;10332283;28;20460;-76
2023/01/20 11:18:15;;;;;;;33.67;17.40;;;;;;;4.95;89.23;101551.03;10331984;28;20165;-75
2023/01/20 11:23:37;;;;;;;31.38;16.95;;;;;;;4.78;88.28;101529.28;10332151;28;20510;-77
2023/01/20 11:28:52;;;;;;;31.02;15.05;;;;;;;4.90;87.30;101550.50;10331343;28;20077;-77
2023/01/20 11:34:18;;;;;;;29.83;16.65;;;;;;;4.79;88.59;101535.44;10331352;28;20402;-77
2023/01/20 11:39:28;;;;;;;33.67;16.35;;;;;;;5.00;86.34;101512.94;10331788;28;20046;-77
2023/01/20 11:44:29;;;;;;;28.98;14.70;;;;;;;5.30;85.54;101538.13;10331079;28;20097;-76
2023/01/20 11:49:29;;;;;;;24.17;13.95;;;;;;;5.42;84.99;101534.66;10330777;28;20113;-77
2023/01/20 11:54:30;;;;;;;27.25;13.55;;;;;;;5.12;84.01;101452.47;10331411;28;20042;-76
2023/01/20 11:59:34;;;;;;;26.80;13.57;;;;;;;5.78;83.86;101524.31;10331099;28;20462;-76
2023/01/20 12:04:44;;;;;;;22.27;11.03;;;;;;;6.03;82.92;101523.44;10331411;28;20038;-76
2023/01/20 12:09:50;;;;;;;24.55;11.57;;;;;;;6.12;82.59;101522.78;10331180;28;20104;-76
2023/01/20 12:15:02;;;;;;;23.08;11.02;;;;;;;6.16;80.48;101508.38;10363216;28;20042;-75
2023/01/20 12:20:25;;;;;;;23.92;11.93;;;;;;;5.97;81.60;101493.06;10369878;28;20065;-77
2023/01/20 12:25:35;;;;;;;23.23;10.83;;;;;;;5.42;81.33;101397.63;10369238;28;20041;-76
2023/01/20 12:30:43;;;;;;;54.80;9.48;;;;;;;5.53;80.70;101425.00;10372607;28;20073;-75
2023/01/20 12:36:07;;;;;;;23.33;9.57;;;;;;;5.91;81.03;101506.66;10368851;28;20503;-76
2023/01/20 12:41:15;;;;;;;;;;;;;;;6.05;80.61;101516.25;10378404;28;20092;-76
2023/01/20 12:46:31;;;;;;;18.35;9.27;;;;;;;5.92;80.15;101495.13;10377156;28;20008;-76
2023/01/20 12:52:09;;;;;;;24.30;9.88;;;;;;;5.99;80.73;101501.72;10377423;28;20049;-74
2023/01/20 12:57:30;;;;;;;18.55;9.15;;;;;;;6.02;79.79;101511.22;10365060;28;20053;-75
2023/01/20 13:02:37;;;;;;;17.20;8.65;;;;;;;5.95;80.04;101510.78;10349296;28;20042;-76
2023/01/20 13:08:08;;;;;;;23.55;8.95;;;;;;;5.71;80.51;101477.28;10362450;28;20049;-75
2023/01/20 13:13:39;;;;;;;18.85;9.40;;;;;;;5.86;80.97;101511.41;10337531;28;20046;-74
2023/01/20 13:19:02;;;;;;;23.73;9.70;;;;;;;5.77;80.62;101507.63;10365659;28;20136;-74
2023/01/20 13:24:05;;;;;;;17.50;9.23;;;;;;;5.66;80.99;101497.84;10376484;28;20042;-73
2023/01/20 13:29:20;;;;;;;17.85;9.90;;;;;;;5.66;81.39;101505.75;10375790;28;20050;-74
2023/01/20 13:34:21;;;;;;;28.42;6.28;;;;;;;5.58;81.92;101497.53;10376853;28;20100;-74
2023/01/20 13:39:38;;;;;;;22.60;5.38;;;;;;;5.40;82.56;101501.44;10376145;28;20042;-73
2023/01/20 13:44:39;;;;;;;15.55;4.53;;;;;;;5.04;83.44;101488.06;10375802;28;20041;-74
2023/01/20 13:49:43;;;;;;;23.10;4.60;;;;;;;4.96;84.92;101511.41;10375360;28;20049;-74
2023/01/20 13:54:46;;;;;;;33.57;4.73;;;;;;;4.80;85.25;101508.16;10375637;28;20072;-80
2023/01/20 13:59:46;;;;;;;34.67;5.05;;;;;;;4.66;85.62;101514.31;10373498;28;20512;-77
2023/01/20 14:04:48;;;;;;;28.58;4.82;;;;;;;4.43;85.62;101514.97;10375773;28;20056;-78
2023/01/20 14:09:57;;;;;;;31.23;5.57;;;;;;;4.21;87.67;101524.25;10373812;28;20038;-78
2023/01/20 14:14:58;;;;;;;23.83;4.43;;;;;;;4.08;87.61;101526.81;10374084;28;20107;-78
2023/01/20 14:19:59;;;;;;;33.20;4.85;;;;;;;3.72;87.86;101489.72;10374825;28;20111;-77
2023/01/20 14:25:01;;;;;;;25.92;4.97;;;;;;;3.86;88.50;101524.72;10349854;28;20096;-77
2023/01/20 14:30:22;;;;;;;26.40;4.57;;;;;;;3.79;89.61;101530.44;10361893;28;20041;-77
2023/01/20 14:35:28;;;;;;;23.77;4.30;;;;;;;3.47;90.36;101524.50;10365632;28;20092;-77
2023/01/20 14:40:33;;;;;;;28.05;4.93;;;;;;;3.34;90.76;101538.38;10374414;28;20053;-77
2023/01/20 14:45:36;;;;;;;23.42;4.50;;;;;;;3.31;91.37;101556.13;10373681;28;20042;-76
2023/01/20 14:50:38;;;;;;;26.17;4.50;;;;;;;2.95;92.42;101520.59;10372349;28;20076;-77
2023/01/20 14:55:40;;;;;;;20.38;5.18;;;;;;;2.97;92.00;101544.97;10373158;28;20041;-77
2023/01/20 15:00:44;;;;;;;25.58;4.95;;;;;;;2.80;93.33;101542.50;10372694;28;20133;-77
2023/01/20 15:05:54;;;;;;;20.67;4.47;;;;;;;2.66;94.13;101541.50;10372821;28;20061;-76
2023/01/20 15:11:17;;;;;;;23.77;4.97;;;;;;;2.78;94.79;101565.34;10372577;28;20045;-74
2023/01/20 15:16:29;;;;;;;16.50;4.40;;;;;;;2.64;94.79;101558.28;10373806;28;20057;-76
2023/01/20 15:21:34;;;;;;;17.83;4.83;;;;;;;2.22;94.99;101497.66;10371355;28;20046;-77
2023/01/20 15:26:37;;;;;;;18.30;5.20;;;;;;;2.43;95.70;101550.69;10371783;28;20646;-77
2023/01/20 15:31:38;;;;;;;19.05;4.65;;;;;;;1.99;95.61;101483.19;10372400;28;20092;-78
2023/01/20 15:36:39;;;;;;;16.67;4.88;;;;;;;1.46;95.72;101418.84;10361106;28;20088;-77
2023/01/20 15:41:40;;;;;;;18.40;3.97;;;;;;;2.36;95.81;101567.66;10350715;28;20049;-77
2023/01/20 15:46:40;;;;;;;18.00;3.78;;;;;;;2.13;95.74;101574.19;10349910;28;20046;-77
2023/01/20 15:51:42;;;;;;;13.23;3.40;;;;;;;1.64;95.58;101495.59;10351383;28;20452;-77
2023/01/20 15:56:43;;;;;;;20.23;3.38;;;;;;;1.93;95.99;101571.78;10350448;28;20661;-77
2023/01/20 16:01:45;;;;;;;17.95;2.92;;;;;;;1.86;95.97;101586.16;10348602;28;20034;-74
2023/01/20 16:06:46;;;;;;;11.63;2.70;;;;;;;1.50;95.55;101553.97;10348516;28;20029;-76
2023/01/20 16:11:47;;;;;;;12.57;2.90;;;;;;;1.53;95.88;101579.16;10353059;28;20100;-77
2023/01/20 16:16:48;;;;;;;12.95;2.88;;;;;;;1.49;95.74;101602.00;10368288;28;20065;-75
2023/01/20 16:21:49;;;;;;;14.50;3.20;;;;;;;0.98;95.90;101519.13;10359079;28;20035;-77
2023/01/20 16:26:49;;;;;;;16.15;3.00;;;;;;;0.75;95.65;101491.50;10369354;28;20042;-77
2023/01/20 16:31:50;;;;;;;9.70;2.72;;;;;;;1.22;96.31;101595.56;10338581;28;20041;-78
2023/01/20 16:36:51;;;;;;;15.23;4.25;;;;;;;1.22;96.50;101619.94;10361112;28;20053;-76
2023/01/20 16:41:51;;;;;;;13.20;3.15;;;;;;;0.56;96.56;101538.63;10377192;28;20124;-77
2023/01/20 16:46:52;;;;;;;20.40;3.20;;;;;;;0.99;96.68;101604.53;10370523;28;20064;-76
2023/01/20 16:51:53;;;;;;;17.08;3.78;;;;;;;1.02;96.65;101615.72;10364465;28;20034;-76
2023/01/20 16:56:54;;;;;;;13.52;2.85;;;;;;;0.59;96.78;101534.09;10376690;28;20156;-77
2023/01/20 17:01:55;;;;;;;11.60;3.15;;;;;;;0.95;97.25;101598.63;10377044;28;20038;-77
2023/01/20 17:06:55;;;;;;;13.20;3.17;;;;;;;0.47;96.85;101519.00;10376303;28;20046;-77
2023/01/20 17:11:56;;;;;;;13.00;3.05;;;;;;;0.41;96.80;101509.69;10345457;28;20057;-77
2023/01/20 17:16:57;;;;;;;12.02;3.20;;;;;;;0.37;96.93;101487.25;10347172;28;20054;-78
2023/01/20 17:21:57;;;;;;;11.77;2.88;;;;;;;0.19;97.48;101462.00;10350175;28;20120;-77
2023/01/20 17:26:58;;;;;;;7.88;3.28;;;;;;;0.63;98.89;101572.28;10352303;28;20045;-78
2023/01/20 17:31:59;;;;;;;10.75;3.78;;;;;;;0.44;98.06;101530.47;10353623;28;20033;-76
2023/01/20 17:37:00;;;;;;;11.30;3.85;;;;;;;0.65;98.64;101570.41;10350594;28;20084;-76
2023/01/20 17:42:01;;;;;;;11.57;3.40;;;;;;;0.75;98.93;101580.41;10351263;28;20233;-76
2023/01/20 17:47:02;;;;;;;11.13;3.42;;;;;;;0.72;98.74;101573.59;10350314;28;20035;-77
2023/01/20 17:52:03;;;;;;;12.35;3.55;;;;;;;0.67;99.21;101591.28;10350899;28;20033;-77
2023/01/20 17:57:04;;;;;;;16.65;4.10;;;;;;;0.54;99.62;101574.47;10351005;28;20129;-78
2023/01/20 18:02:05;;;;;;;17.90;4.90;;;;;;;0.38;100.00;101559.50;10349210;28;20038;-76
2023/01/20 18:07:07;;;;;;;14.57;3.90;;;;;;;-0.02;100.00;101506.50;10350064;28;20112;-77
2023/01/20 18:12:08;;;;;;;14.30;4.22;;;;;;;-0.23;100.00;101463.13;10351650;28;20072;-75
2023/01/20 18:17:09;;;;;;;11.98;3.90;;;;;;;0.37;100.00;101575.28;10347516;28;20161;-77
2023/01/20 18:22:11;;;;;;;15.27;4.10;;;;;;;0.23;100.00;101544.56;10348090;28;20132;-77
2023/01/20 18:27:13;;;;;;;11.43;3.42;;;;;;;0.33;100.00;101540.59;10350845;28;20691;-78
2023/01/20 18:32:14;;;;;;;20.08;4.53;;;;;;;0.49;100.00;101563.41;10347685;28;20060;-78
2023/01/20 18:37:15;;;;;;;11.52;3.42;;;;;;;0.37;100.00;101538.69;10347355;28;20513;-77
2023/01/20 18:42:15;;;;;;;17.05;4.72;;;;;;;0.31;100.00;101524.13;10350912;28;20042;-77
2023/01/20 18:47:16;;;;;;;13.27;4.07;;;;;;;0.35;100.00;101535.28;10346270;28;20050;-76
2023/01/20 18:52:17;;;;;;;14.73;3.97;;;;;;;-0.32;100.00;101432.22;10346008;28;20044;-76
2023/01/20 18:57:18;;;;;;;10.70;3.83;;;;;;;-0.27;100.00;101440.66;10351079;28;20552;-77
2023/01/20 19:02:19;;;;;;;14.90;3.97;;;;;;;-0.33;100.00;101443.56;10358042;28;20049;-74
2023/01/20 19:07:19;;;;;;;17.80;3.70;;;;;;;0.24;100.00;101538.44;10372578;28;20046;-75
2023/01/20 19:12:20;;;;;;;16.73;3.67;;;;;;;-0.36;100.00;101431.50;10371491;28;20532;-75
2023/01/20 19:17:21;;;;;;;10.55;3.60;;;;;;;0.19;100.00;101511.66;10372325;28;20061;-74
2023/01/20 19:22:22;;;;;;;19.50;4.30;;;;;;;-0.03;100.00;101480.44;10372145;28;20038;-76
2023/01/20 19:27:25;;;;;;;18.13;4.85;;;;;;;-0.18;100.00;101468.97;10371891;28;20056;-74
2023/01/20 19:32:25;;;;;;;15.27;4.00;;;;;;;-0.65;100.00;101391.09;10371147;28;20046;-76
2023/01/20 19:37:27;;;;;;;15.25;4.13;;;;;;;0.08;100.00;101511.31;10372936;28;20049;-76
2023/01/20 19:42:28;;;;;;;16.15;4.22;;;;;;;0.15;100.00;101518.81;10372664;28;20045;-76
2023/01/20 19:47:32;;;;;;;10.88;4.13;;;;;;;-0.51;100.00;101422.63;10376497;28;20409;-76
2023/01/20 19:52:32;;;;;;;9.98;3.97;;;;;;;0.05;100.00;101521.91;10380513;28;20048;-76
2023/01/20 19:57:34;;;;;;;14.85;3.88;;;;;;;0.04;100.00;101517.59;10379105;28;20075;-76
2023/01/20 20:02:35;;;;;;;15.20;3.70;;;;;;;-0.02;100.00;101498.69;10380052;28;20421;-75
2023/01/20 20:07:37;;;;;;;13.50;4.82;;;;;;;-0.17;100.00;101488.94;10378096;28;20413;-75
2023/01/20 20:12:37;;;;;;;13.32;3.83;;;;;;;-0.12;100.00;101505.25;10380341;28;20137;-75
2023/01/20 20:17:38;;;;;;;11.05;4.30;;;;;;;0.04;100.00;101504.53;10379270;28;20148;-76
2023/01/20 20:22:39;;;;;;;13.05;3.97;;;;;;;0.02;100.00;101498.53;10379292;28;20037;-76
2023/01/20 20:27:39;;;;;;;14.85;4.88;;;;;;;-0.12;100.00;101468.69;10379040;28;20092;-76
2023/01/20 20:32:40;;;;;;;13.40;4.05;;;;;;;0.01;100.00;101494.25;10378109;28;20096;-76
2023/01/20 20:37:42;;;;;;;16.95;4.80;;;;;;;-0.49;100.00;101439.03;10379597;28;20506;-76
2023/01/20 20:42:43;;;;;;;12.40;4.05;;;;;;;-1.15;100.00;101329.00;10377998;28;20045;-75
2023/01/20 20:47:44;;;;;;;13.55;4.40;;;;;;;-0.35;100.00;101466.31;10378885;28;20413;-75
2023/01/20 20:52:49;;;;;;;12.52;4.10;;;;;;;-0.26;100.00;101491.97;10378305;28;20060;-76
2023/01/20 20:57:50;;;;;;;13.10;4.65;;;;;;;-0.31;100.00;101481.72;10376479;28;20041;-76
2023/01/20 21:02:51;;;;;;;20.77;4.95;;;;;;;-0.62;100.00;101443.13;10377342;28;20054;-76
2023/01/20 21:07:51;;;;;;;13.65;4.63;;;;;;;-0.52;100.00;101459.22;10378082;28;20120;-76
2023/01/20 21:12:52;;;;;;;15.63;4.40;;;;;;;-0.33;100.00;101483.59;10377427;28;20034;-76
2023/01/20 21:17:53;;;;;;;17.25;5.28;;;;;;;-0.34;100.00;101499.31;10377047;28;20057;-76
2023/01/20 21:22:54;;;;;;;12.10;4.95;;;;;;;-0.54;100.00;101493.25;10376514;28;20046;-75
2023/01/20 21:27:54;;;;;;;13.02;4.75;;;;;;;-0.63;100.00;101483.19;10375148;28;20069;-75
2023/01/20 21:32:55;;;;;;;11.02;4.95;;;;;;;-0.57;100.00;101490.78;10376174;28;20042;-76
2023/01/20 21:37:56;;;;;;;14.23;5.00;;;;;;;-1.34;100.00;101362.03;10376463;28;20044;-76
2023/01/20 21:44:27;;;;;;;14.38;5.63;;;;;;;-0.63;100.00;101488.41;10376367;28;20042;-75
2023/01/20 21:53:37;;;;;;;15.93;5.00;;;;;;;-0.60;100.00;101482.19;10375943;28;20069;-76
2023/01/20 21:58:37;;;;;;;18.08;5.03;;;;;;;-1.05;100.00;101392.84;10375328;28;20045;-76
2023/01/20 22:03:38;;;;;;;13.43;4.50;;;;;;;-0.60;100.00;101477.84;10375816;28;20088;-75
2023/01/20 22:08:39;;;;;;;15.38;5.38;;;;;;;-0.60;100.00;101471.75;10374209;28;20042;-76
2023/01/20 22:13:39;;;;;;;21.25;5.50;;;;;;;-0.73;100.00;101442.78;10375007;28;20038;-75
2023/01/20 22:18:44;;;;;;;14.55;5.18;;;;;;;-0.64;100.00;101444.97;10374538;28;20136;-76
2023/01/20 22:23:45;;;;;;;13.73;5.20;;;;;;;-1.65;100.00;101291.22;10374984;28;20144;-76
2023/01/20 22:28:46;;;;;;;15.40;5.25;;;;;;;-0.51;100.00;101463.50;10374813;28;20053;-76
2023/01/20 22:33:54;;;;;;;15.07;5.82;;;;;;;-0.46;100.00;101469.38;10374955;28;20037;-76
2023/01/20 22:38:55;;;;;;;17.25;5.10;;;;;;;-0.49;100.00;101454.69;10373691;28;20042;-75
2023/01/20 22:43:56;;;;;;;17.65;5.90;;;;;;;-0.49;100.00;101448.66;10373931;28;20046;-76
2023/01/20 22:48:58;;;;;;;18.80;5.85;;;;;;;-0.35;100.00;101466.31;10373538;28;20152;-76
2023/01/20 22:54:01;;;;;;;16.45;6.05;;;;;;;-0.28;100.00;101473.75;10373661;28;20124;-76
2023/01/20 22:59:01;;;;;;;18.67;5.93;;;;;;;-0.35;100.00;101484.56;10373405;28;20406;-76
2023/01/20 23:04:04;;;;;;;21.48;6.55;;;;;;;-1.38;100.00;101307.44;10373230;28;20042;-76
2023/01/20 23:09:09;;;;;;;13.82;5.40;;;;;;;-0.95;100.00;101372.47;10373253;28;20041;-76
2023/01/20 23:14:12;;;;;;;18.83;6.53;;;;;;;-0.59;100.00;101444.78;10373338;28;20045;-76